createdAt,value
2017-04-12T00:00:06.729Z,1013.22
2017-04-12T00:01:07.971Z,1013.18
2017-04-12T00:02:09.214Z,1013.17
2017-04-12T00:03:10.435Z,1013.18
2017-04-12T00:04:11.701Z,1013.18
2017-04-12T00:05:13.013Z,1013.08
2017-04-12T00:06:14.250Z,1013.06
2017-04-12T00:07:15.510Z,1013.07
2017-04-12T00:08:16.742Z,1013.08
2017-04-12T00:09:17.969Z,1013.04
2017-04-12T00:10:19.261Z,1013.04
2017-04-12T00:11:20.579Z,1013.02
2017-04-12T00:12:21.780Z,1013
2017-04-12T00:13:23.087Z,1013
2017-04-12T00:14:24.352Z,1012.99
2017-04-12T00:15:25.711Z,1012.97
2017-04-12T00:16:27.087Z,1012.9
2017-04-12T00:17:28.361Z,1012.95
2017-04-12T00:18:29.580Z,1012.89
2017-04-12T00:19:30.816Z,1012.85
2017-04-12T00:20:32.062Z,1012.77
2017-04-12T00:21:33.421Z,1012.79
2017-04-12T00:22:34.771Z,1012.7
2017-04-12T00:23:36.019Z,1012.66
2017-04-12T00:24:37.291Z,1012.6
2017-04-12T00:25:38.506Z,1012.69
2017-04-12T00:26:39.737Z,1012.63
2017-04-12T00:27:41.153Z,1012.64
2017-04-12T00:28:42.398Z,1012.68
2017-04-12T00:29:43.612Z,1012.64
2017-04-12T00:30:44.979Z,1012.58
2017-04-12T00:31:46.220Z,1012.59
2017-04-12T00:32:47.818Z,1012.6
2017-04-12T00:33:49.147Z,1012.59
2017-04-12T00:34:50.412Z,1012.57
2017-04-12T00:35:51.656Z,1012.55
2017-04-12T00:36:52.905Z,1012.51
2017-04-12T00:37:54.135Z,1012.56
2017-04-12T00:38:55.462Z,1012.5
2017-04-12T00:39:56.698Z,1012.47
2017-04-12T00:40:57.933Z,1012.5
2017-04-12T00:41:59.185Z,1012.49
2017-04-12T00:43:00.412Z,1012.5
2017-04-12T00:44:01.664Z,1012.53
2017-04-12T00:45:02.909Z,1012.44
2017-04-12T00:46:04.150Z,1012.46
2017-04-12T00:47:05.399Z,1012.43
2017-04-12T00:48:06.708Z,1012.36
2017-04-12T00:49:07.945Z,1012.37
2017-04-12T00:50:09.188Z,1012.32
2017-04-12T00:51:10.425Z,1012.32
2017-04-12T00:52:11.733Z,1012.27
2017-04-12T00:53:13.035Z,1012.22
2017-04-12T00:54:14.273Z,1012.18
2017-04-12T00:55:15.520Z,1012.18
2017-04-12T00:56:16.777Z,1012.15
2017-04-12T00:57:18.024Z,1012.12
2017-04-12T00:58:19.280Z,1012.08
2017-04-12T00:59:20.545Z,1012.11
2017-04-12T01:00:21.780Z,1012.11
2017-04-12T01:01:23.068Z,1012.08
2017-04-12T01:02:24.319Z,1012.08
2017-04-12T01:03:25.632Z,1012.07
2017-04-12T01:04:26.900Z,1012.08
2017-04-12T01:05:28.134Z,1012.06
2017-04-12T01:06:29.381Z,1012.09
2017-04-12T01:07:30.656Z,1012.06
2017-04-12T01:08:31.900Z,1012.03
2017-04-12T01:09:33.134Z,1012.03
2017-04-12T01:10:34.375Z,1011.95
2017-04-12T01:11:35.620Z,1011.99
2017-04-12T01:12:36.886Z,1011.89
2017-04-12T01:13:38.119Z,1011.89
2017-04-12T01:14:39.375Z,1011.94
2017-04-12T01:15:40.596Z,1011.91
2017-04-12T01:16:41.834Z,1011.87
2017-04-12T01:17:43.112Z,1011.87
2017-04-12T01:18:44.373Z,1011.84
2017-04-12T01:19:45.624Z,1011.95
2017-04-12T01:20:46.995Z,1011.93
2017-04-12T01:21:48.232Z,1011.89
2017-04-12T01:22:49.507Z,1011.85
2017-04-12T01:23:50.856Z,1011.85
2017-04-12T01:24:52.006Z,1011.82
2017-04-12T01:25:53.276Z,1011.84
2017-04-12T01:26:54.606Z,1011.85
2017-04-12T01:27:55.838Z,1011.82
2017-04-12T01:28:57.094Z,1011.8
2017-04-12T01:29:58.333Z,1011.81
2017-04-12T01:30:59.637Z,1011.84
2017-04-12T01:32:00.853Z,1011.8
2017-04-12T01:33:02.088Z,1011.79
2017-04-12T01:34:03.331Z,1011.77
2017-04-12T01:35:04.575Z,1011.76
2017-04-12T01:36:05.849Z,1011.79
2017-04-12T01:37:07.112Z,1011.8
2017-04-12T01:38:08.361Z,1011.78
2017-04-12T01:39:09.596Z,1011.76
2017-04-12T01:40:10.870Z,1011.64
2017-04-12T01:41:12.094Z,1011.64
2017-04-12T01:42:13.342Z,1011.6
2017-04-12T01:43:14.706Z,1011.56
2017-04-12T01:44:15.956Z,1011.52
2017-04-12T01:45:17.185Z,1011.56
2017-04-12T01:46:18.415Z,1011.56
2017-04-12T01:47:19.702Z,1011.6
2017-04-12T01:48:21.055Z,1011.58
2017-04-12T01:49:22.178Z,1011.58
2017-04-12T01:50:23.477Z,1011.55
2017-04-12T01:51:24.750Z,1011.46
2017-04-12T01:52:25.985Z,1011.47
2017-04-12T01:53:27.247Z,1011.42
2017-04-12T01:54:28.480Z,1011.37
2017-04-12T01:55:29.716Z,1011.34
2017-04-12T01:56:31.006Z,1011.37
2017-04-12T01:57:32.306Z,1011.37
2017-04-12T01:58:33.539Z,1011.34
2017-04-12T01:59:34.799Z,1011.3
2017-04-12T02:00:36.030Z,1011.3
2017-04-12T02:01:37.274Z,1011.29
2017-04-12T02:02:38.585Z,1011.28
2017-04-12T02:03:39.854Z,1011.24
2017-04-12T02:04:41.066Z,1011.28
2017-04-12T02:05:42.329Z,1011.22
2017-04-12T02:06:43.542Z,1011.27
2017-04-12T02:07:44.801Z,1011.21
2017-04-12T02:08:46.067Z,1011.21
2017-04-12T02:09:47.336Z,1011.14
2017-04-12T02:10:48.680Z,1011.15
2017-04-12T02:11:49.910Z,1011.13
2017-04-12T02:12:51.138Z,1011.06
2017-04-12T02:13:52.380Z,1011
2017-04-12T02:14:53.652Z,1011.02
2017-04-12T02:15:54.915Z,1010.98
2017-04-12T02:16:56.150Z,1011.02
2017-04-12T02:17:57.400Z,1011.02
2017-04-12T02:18:58.628Z,1010.99
2017-04-12T02:19:59.875Z,1011
2017-04-12T02:21:01.116Z,1011.01
2017-04-12T02:22:02.402Z,1010.96
2017-04-12T02:23:03.637Z,1010.89
2017-04-12T02:24:04.850Z,1010.92
2017-04-12T02:25:06.079Z,1010.85
2017-04-12T02:26:07.316Z,1010.79
2017-04-12T02:27:08.581Z,1010.76
2017-04-12T02:28:09.908Z,1010.74
2017-04-12T02:29:11.205Z,1010.73
2017-04-12T02:30:12.657Z,1010.68
2017-04-12T02:31:13.895Z,1010.73
2017-04-12T02:32:15.124Z,1010.71
2017-04-12T02:33:16.379Z,1010.73
2017-04-12T02:34:17.630Z,1010.7
2017-04-12T02:35:18.982Z,1010.68
2017-04-12T02:36:20.211Z,1010.58
2017-04-12T02:37:21.465Z,1010.6
2017-04-12T02:38:22.715Z,1010.62
2017-04-12T02:39:23.963Z,1010.58
2017-04-12T02:40:25.308Z,1010.52
2017-04-12T02:41:26.836Z,1010.5
2017-04-12T02:42:28.064Z,1010.42
2017-04-12T02:43:29.297Z,1010.55
2017-04-12T02:44:30.560Z,1010.46
2017-04-12T02:45:31.849Z,1010.54
2017-04-12T02:46:33.144Z,1010.6
2017-04-12T02:47:34.373Z,1010.55
2017-04-12T02:48:35.637Z,1010.45
2017-04-12T02:49:36.871Z,1010.44
2017-04-12T02:50:38.118Z,1010.49
2017-04-12T02:51:39.501Z,1010.51
2017-04-12T02:52:40.716Z,1010.5
2017-04-12T02:53:41.946Z,1010.49
2017-04-12T02:54:43.188Z,1010.47
2017-04-12T02:55:44.464Z,1010.51
2017-04-12T02:56:45.678Z,1010.46
2017-04-12T02:57:47.024Z,1010.55
2017-04-12T02:58:48.271Z,1010.51
2017-04-12T02:59:49.548Z,1010.55
2017-04-12T03:00:50.772Z,1010.55
2017-04-12T03:01:52.007Z,1010.61
2017-04-12T03:02:53.248Z,1010.51
2017-04-12T03:03:54.490Z,1010.52
2017-04-12T03:04:55.747Z,1010.57
2017-04-12T03:05:56.991Z,1010.52
2017-04-12T03:06:58.238Z,1010.5
2017-04-12T03:07:59.464Z,1010.57
2017-04-12T03:09:00.693Z,1010.57
2017-04-12T03:10:01.936Z,1010.53
2017-04-12T03:11:03.191Z,1010.56
2017-04-12T03:12:04.430Z,1010.51
2017-04-12T03:13:05.697Z,1010.55
2017-04-12T03:14:06.938Z,1010.55
2017-04-12T03:15:08.180Z,1010.53
2017-04-12T03:16:09.441Z,1010.47
2017-04-12T03:17:10.689Z,1010.52
2017-04-12T03:18:12.028Z,1010.45
2017-04-12T03:19:13.297Z,1010.44
2017-04-12T03:20:14.570Z,1010.43
2017-04-12T03:21:15.775Z,1010.5
2017-04-12T03:22:17.003Z,1010.48
2017-04-12T03:23:18.253Z,1010.45
2017-04-12T03:24:19.529Z,1010.44
2017-04-12T03:25:20.747Z,1010.45
2017-04-12T03:26:22.063Z,1010.41
2017-04-12T03:27:23.311Z,1010.42
2017-04-12T03:28:24.540Z,1010.46
2017-04-12T03:29:25.789Z,1010.4
2017-04-12T03:30:27.041Z,1010.37
2017-04-12T03:31:28.293Z,1010.38
2017-04-12T03:32:29.524Z,1010.34
2017-04-12T03:33:30.852Z,1010.36
2017-04-12T03:34:32.092Z,1010.41
2017-04-12T03:35:33.344Z,1010.36
2017-04-12T03:36:34.563Z,1010.28
2017-04-12T03:37:35.887Z,1010.3
2017-04-12T03:38:37.129Z,1010.3
2017-04-12T03:39:38.344Z,1010.29
2017-04-12T03:40:39.601Z,1010.35
2017-04-12T03:41:40.844Z,1010.34
2017-04-12T03:42:42.168Z,1010.26
2017-04-12T03:43:43.468Z,1010.24
2017-04-12T03:44:44.727Z,1010.25
2017-04-12T03:45:45.964Z,1010.26
2017-04-12T03:46:47.205Z,1010.25
2017-04-12T03:47:48.442Z,1010.22
2017-04-12T03:48:49.701Z,1010.21
2017-04-12T03:49:50.957Z,1010.17
2017-04-12T03:50:52.211Z,1010.18
2017-04-12T03:51:53.429Z,1010.16
2017-04-12T03:52:54.712Z,1010.17
2017-04-12T03:53:55.950Z,1010.2
2017-04-12T03:54:57.207Z,1010.08
2017-04-12T03:55:58.416Z,1010.06
2017-04-12T03:56:59.827Z,1010.04
2017-04-12T03:58:01.125Z,1010.03
2017-04-12T03:59:02.362Z,1010
2017-04-12T04:00:03.603Z,1010.01
2017-04-12T04:01:04.860Z,1010.03
2017-04-12T04:02:06.177Z,1010.08
2017-04-12T04:03:07.413Z,1010.05
2017-04-12T04:04:08.680Z,1010.05
2017-04-12T04:05:09.887Z,1010.01
2017-04-12T04:06:11.148Z,1010
2017-04-12T04:07:12.376Z,1010.03
2017-04-12T04:08:13.631Z,1010.04
2017-04-12T04:09:14.878Z,1010.04
2017-04-12T04:10:16.117Z,1010.03
2017-04-12T04:11:17.411Z,1009.97
2017-04-12T04:12:18.646Z,1010
2017-04-12T04:13:20.026Z,1010.02
2017-04-12T04:14:21.279Z,1010.04
2017-04-12T04:15:22.470Z,1010.02
2017-04-12T04:16:23.797Z,1009.95
2017-04-12T04:17:25.032Z,1009.91
2017-04-12T04:18:26.269Z,1009.93
2017-04-12T04:19:27.506Z,1009.84
2017-04-12T04:20:28.764Z,1009.92
2017-04-12T04:21:29.986Z,1009.91
2017-04-12T04:22:31.307Z,1009.92
2017-04-12T04:23:32.533Z,1009.94
2017-04-12T04:24:33.744Z,1009.82
2017-04-12T04:25:34.982Z,1009.96
2017-04-12T04:26:36.219Z,1009.9
2017-04-12T04:27:37.488Z,1009.92
2017-04-12T04:28:38.809Z,1009.93
2017-04-12T04:29:40.042Z,1009.88
2017-04-12T04:30:41.281Z,1009.84
2017-04-12T04:31:42.521Z,1009.84
2017-04-12T04:32:43.771Z,1009.86
2017-04-12T04:33:45.035Z,1009.85
2017-04-12T04:34:46.304Z,1009.83
2017-04-12T04:35:47.594Z,1009.86
2017-04-12T04:36:48.863Z,1009.79
2017-04-12T04:37:50.124Z,1009.76
2017-04-12T04:38:51.347Z,1009.81
2017-04-12T04:39:52.621Z,1009.8
2017-04-12T04:40:53.841Z,1009.79
2017-04-12T04:41:55.201Z,1009.75
2017-04-12T04:42:56.442Z,1009.78
2017-04-12T04:43:57.668Z,1009.75
2017-04-12T04:44:58.910Z,1009.76
2017-04-12T04:46:00.152Z,1009.75
2017-04-12T04:47:01.491Z,1009.66
2017-04-12T04:48:02.743Z,1009.68
2017-04-12T04:49:03.983Z,1009.62
2017-04-12T04:50:05.239Z,1009.6
2017-04-12T04:51:06.460Z,1009.53
2017-04-12T04:52:07.691Z,1009.52
2017-04-12T04:53:08.943Z,1009.5
2017-04-12T04:54:10.191Z,1009.47
2017-04-12T04:55:11.526Z,1009.51
2017-04-12T04:56:12.787Z,1009.56
2017-04-12T04:57:14.000Z,1009.48
2017-04-12T04:58:15.229Z,1009.53
2017-04-12T04:59:16.478Z,1009.5
2017-04-12T05:00:17.731Z,1009.51
2017-04-12T05:01:19.058Z,1009.54
2017-04-12T05:02:20.298Z,1009.5
2017-04-12T05:03:21.555Z,1009.48
2017-04-12T05:04:22.793Z,1009.49
2017-04-12T05:05:24.048Z,1009.43
2017-04-12T05:06:25.355Z,1009.43
2017-04-12T05:07:26.600Z,1009.51
2017-04-12T05:08:27.862Z,1009.5
2017-04-12T05:09:29.159Z,1009.54
2017-04-12T05:10:30.394Z,1009.55
2017-04-12T05:11:31.628Z,1009.54
2017-04-12T05:12:32.885Z,1009.57
2017-04-12T05:13:34.118Z,1009.58
2017-04-12T05:14:35.400Z,1009.56
2017-04-12T05:15:36.669Z,1009.55
2017-04-12T05:16:37.896Z,1009.54
2017-04-12T05:17:39.124Z,1009.54
2017-04-12T05:18:40.369Z,1009.61
2017-04-12T05:19:41.633Z,1009.54
2017-04-12T05:20:42.950Z,1009.59
2017-04-12T05:21:44.167Z,1009.54
2017-04-12T05:22:45.412Z,1009.59
2017-04-12T05:23:46.667Z,1009.57
2017-04-12T05:24:47.908Z,1009.53
2017-04-12T05:25:49.179Z,1009.59
2017-04-12T05:26:50.443Z,1009.56
2017-04-12T05:27:51.712Z,1009.53
2017-04-12T05:28:52.944Z,1009.49
2017-04-12T05:29:54.204Z,1009.52
2017-04-12T05:30:55.421Z,1009.54
2017-04-12T05:31:56.671Z,1009.51
2017-04-12T05:32:57.966Z,1009.49
2017-04-12T05:33:59.229Z,1009.45
2017-04-12T05:35:00.458Z,1009.39
2017-04-12T05:36:01.685Z,1009.42
2017-04-12T05:37:02.920Z,1009.41
2017-04-12T05:38:04.167Z,1009.44
2017-04-12T05:39:05.416Z,1009.39
2017-04-12T05:40:06.708Z,1009.38
2017-04-12T05:41:07.942Z,1009.35
2017-04-12T05:42:09.233Z,1009.32
2017-04-12T05:43:10.470Z,1009.31
2017-04-12T05:44:11.721Z,1009.3
2017-04-12T05:45:13.061Z,1009.25
2017-04-12T05:46:14.190Z,1009.21
2017-04-12T05:47:15.470Z,1009.19
2017-04-12T05:48:16.695Z,1009.26
2017-04-12T05:49:17.935Z,1009.29
2017-04-12T05:50:19.186Z,1009.33
2017-04-12T05:51:20.434Z,1009.31
2017-04-12T05:52:21.683Z,1009.26
2017-04-12T05:53:22.933Z,1009.24
2017-04-12T05:54:24.206Z,1009.16
2017-04-12T05:55:25.436Z,1009.19
2017-04-12T05:56:26.668Z,1009.23
2017-04-12T05:57:27.965Z,1009.36
2017-04-12T05:58:29.250Z,1009.35
2017-04-12T05:59:30.635Z,1009.33
2017-04-12T06:00:31.849Z,1009.25
2017-04-12T06:01:33.079Z,1009.3
2017-04-12T06:02:34.343Z,1009.28
2017-04-12T06:03:35.568Z,1009.3
2017-04-12T06:04:36.804Z,1009.25
2017-04-12T06:05:38.066Z,1009.29
2017-04-12T06:06:39.404Z,1009.35
2017-04-12T06:07:40.641Z,1009.36
2017-04-12T06:08:41.880Z,1009.38
2017-04-12T06:09:43.121Z,1009.35
2017-04-12T06:10:44.362Z,1009.35
2017-04-12T06:11:45.663Z,1009.36
2017-04-12T06:12:46.917Z,1009.34
2017-04-12T06:13:48.158Z,1009.34
2017-04-12T06:14:49.445Z,1009.26
2017-04-12T06:15:50.656Z,1009.26
2017-04-12T06:16:51.953Z,1009.29
2017-04-12T06:17:53.335Z,1009.2
2017-04-12T06:18:54.575Z,1009.15
2017-04-12T06:19:55.821Z,1009.11
2017-04-12T06:20:57.072Z,1009.04
2017-04-12T06:21:58.314Z,1008.9
2017-04-12T06:22:59.598Z,1008.97
2017-04-12T06:24:00.856Z,1008.9
2017-04-12T06:25:02.090Z,1008.99
2017-04-12T06:26:03.406Z,1008.85
2017-04-12T06:27:04.633Z,1008.91
2017-04-12T06:28:05.937Z,1008.95
2017-04-12T06:29:07.198Z,1008.93
2017-04-12T06:30:08.444Z,1008.96
2017-04-12T06:31:09.707Z,1009.03
2017-04-12T06:32:10.947Z,1008.96
2017-04-12T06:33:12.188Z,1008.96
2017-04-12T06:34:13.534Z,1008.92
2017-04-12T06:35:14.709Z,1008.92
2017-04-12T06:36:16.069Z,1008.94
2017-04-12T06:37:17.279Z,1008.9
2017-04-12T06:38:18.620Z,1008.86
2017-04-12T06:39:19.877Z,1008.85
2017-04-12T06:40:21.127Z,1008.9
2017-04-12T06:41:22.363Z,1008.91
2017-04-12T06:42:23.688Z,1008.89
2017-04-12T06:43:24.963Z,1008.89
2017-04-12T06:44:26.182Z,1008.84
2017-04-12T06:45:27.443Z,1008.82
2017-04-12T06:46:28.699Z,1008.87
2017-04-12T06:47:30.051Z,1008.87
2017-04-12T06:48:31.392Z,1008.78
2017-04-12T06:49:32.689Z,1008.73
2017-04-12T06:50:33.955Z,1008.73
2017-04-12T06:51:35.167Z,1008.73
2017-04-12T06:52:36.423Z,1008.72
2017-04-12T06:53:37.792Z,1008.7
2017-04-12T06:54:39.078Z,1008.7
2017-04-12T06:55:40.317Z,1008.69
2017-04-12T06:56:41.558Z,1008.73
2017-04-12T06:57:42.861Z,1008.77
2017-04-12T06:58:44.068Z,1008.82
2017-04-12T06:59:45.364Z,1008.78
2017-04-12T07:00:46.602Z,1008.83
2017-04-12T07:01:47.839Z,1008.86
2017-04-12T07:02:49.082Z,1008.78
2017-04-12T07:03:50.321Z,1008.82
2017-04-12T07:04:51.564Z,1008.84
2017-04-12T07:05:52.807Z,1008.84
2017-04-12T07:06:54.070Z,1008.72
2017-04-12T07:07:55.472Z,1008.78
2017-04-12T07:08:56.813Z,1008.77
2017-04-12T07:09:58.055Z,1008.84
2017-04-12T07:10:59.343Z,1008.87
2017-04-12T07:12:00.580Z,1008.83
2017-04-12T07:13:01.869Z,1008.85
2017-04-12T07:14:03.139Z,1008.9
2017-04-12T07:15:04.392Z,1008.9
2017-04-12T07:16:05.653Z,1008.92
2017-04-12T07:17:06.885Z,1008.86
2017-04-12T07:18:08.166Z,1008.88
2017-04-12T07:19:09.528Z,1008.84
2017-04-12T07:20:10.776Z,1008.82
2017-04-12T07:21:12.022Z,1008.86
2017-04-12T07:22:13.264Z,1008.81
2017-04-12T07:23:14.561Z,1008.83
2017-04-12T07:24:15.842Z,1008.84
2017-04-12T07:25:17.156Z,1008.78
2017-04-12T07:26:18.404Z,1008.73
2017-04-12T07:27:19.644Z,1008.75
2017-04-12T07:28:20.913Z,1008.71
2017-04-12T07:29:22.219Z,1008.76
2017-04-12T07:30:23.468Z,1008.82
2017-04-12T07:31:24.828Z,1008.73
2017-04-12T07:32:26.084Z,1008.77
2017-04-12T07:33:27.313Z,1008.75
2017-04-12T07:34:28.572Z,1008.7
2017-04-12T07:35:29.824Z,1008.65
2017-04-12T07:36:31.215Z,1008.67
2017-04-12T07:37:32.466Z,1008.69
2017-04-12T07:38:33.714Z,1008.7
2017-04-12T07:39:34.944Z,1008.64
2017-04-12T07:40:36.184Z,1008.68
2017-04-12T07:41:37.430Z,1008.6
2017-04-12T07:42:38.678Z,1008.62
2017-04-12T07:43:39.933Z,1008.63
2017-04-12T07:44:41.178Z,1008.66
2017-04-12T07:45:42.435Z,1008.67
2017-04-12T07:46:43.676Z,1008.62
2017-04-12T07:47:44.911Z,1008.61
2017-04-12T07:48:46.170Z,1008.59
2017-04-12T07:49:47.456Z,1008.57
2017-04-12T07:50:48.745Z,1008.62
2017-04-12T07:51:49.981Z,1008.68
2017-04-12T07:52:51.229Z,1008.62
2017-04-12T07:53:52.491Z,1008.56
2017-04-12T07:54:53.736Z,1008.64
2017-04-12T07:55:54.990Z,1008.54
2017-04-12T07:56:56.224Z,1008.57
2017-04-12T07:57:57.462Z,1008.55
2017-04-12T07:58:58.717Z,1008.58
2017-04-12T07:59:59.950Z,1008.55
2017-04-12T08:01:01.191Z,1008.5
2017-04-12T08:02:02.423Z,1008.51
2017-04-12T08:03:03.771Z,1008.58
2017-04-12T08:04:05.023Z,1008.54
2017-04-12T08:05:06.269Z,1008.57
2017-04-12T08:06:07.544Z,1008.55
2017-04-12T08:07:08.756Z,1008.51
2017-04-12T08:08:10.010Z,1008.56
2017-04-12T08:09:11.247Z,1008.53
2017-04-12T08:10:12.498Z,1008.57
2017-04-12T08:11:13.739Z,1008.53
2017-04-12T08:12:14.974Z,1008.55
2017-04-12T08:13:16.221Z,1008.6
2017-04-12T08:14:17.470Z,1008.65
2017-04-12T08:15:18.744Z,1008.56
2017-04-12T08:16:19.950Z,1008.67
2017-04-12T08:17:21.309Z,1008.55
2017-04-12T08:18:22.549Z,1008.58
2017-04-12T08:19:23.797Z,1008.53
2017-04-12T08:20:25.056Z,1008.53
2017-04-12T08:21:26.396Z,1008.53
2017-04-12T08:22:27.608Z,1008.47
2017-04-12T08:23:28.931Z,1008.49
2017-04-12T08:24:30.195Z,1008.52
2017-04-12T08:25:31.434Z,1008.44
2017-04-12T08:26:32.705Z,1008.47
2017-04-12T08:27:34.080Z,1008.39
2017-04-12T08:28:35.573Z,1008.41
2017-04-12T08:29:36.959Z,1008.38
2017-04-12T08:30:38.179Z,1008.4
2017-04-12T08:31:39.421Z,1008.34
2017-04-12T08:32:40.669Z,1008.33
2017-04-12T08:33:41.936Z,1008.36
2017-04-12T08:34:43.178Z,1008.31
2017-04-12T08:35:44.444Z,1008.37
2017-04-12T08:36:45.683Z,1008.35
2017-04-12T08:37:46.921Z,1008.36
2017-04-12T08:38:48.162Z,1008.37
2017-04-12T08:39:49.602Z,1008.33
2017-04-12T08:40:50.829Z,1008.36
2017-04-12T08:41:52.068Z,1008.3
2017-04-12T08:42:53.313Z,1008.31
2017-04-12T08:43:54.548Z,1008.29
2017-04-12T08:44:55.882Z,1008.35
2017-04-12T08:45:57.229Z,1008.34
2017-04-12T08:46:58.582Z,1008.37
2017-04-12T08:47:59.842Z,1008.36
2017-04-12T08:49:01.071Z,1008.34
2017-04-12T08:50:02.314Z,1008.35
2017-04-12T08:51:03.561Z,1008.28
2017-04-12T08:52:04.815Z,1008.22
2017-04-12T08:53:06.038Z,1008.24
2017-04-12T08:54:07.398Z,1008.19
2017-04-12T08:55:08.605Z,1008.18
2017-04-12T08:56:09.849Z,1008.13
2017-04-12T08:57:11.110Z,1008.21
2017-04-12T08:58:12.377Z,1008.08
2017-04-12T08:59:13.598Z,1008.08
2017-04-12T09:00:15.042Z,1008.1
2017-04-12T09:01:16.271Z,1008.04
2017-04-12T09:02:17.524Z,1008.04
2017-04-12T09:03:18.759Z,1008
2017-04-12T09:04:20.079Z,1008.05
2017-04-12T09:05:21.321Z,1008.06
2017-04-12T09:06:22.566Z,1008.06
2017-04-12T09:07:23.836Z,1008.22
2017-04-12T09:08:25.067Z,1008.34
2017-04-12T09:09:26.294Z,1008.33
2017-04-12T09:10:27.550Z,1008.43
2017-04-12T09:11:28.875Z,1008.54
2017-04-12T09:12:30.122Z,1008.47
2017-04-12T09:13:31.367Z,1008.33
2017-04-12T09:14:32.603Z,1008.32
2017-04-12T09:15:33.850Z,1008.38
2017-04-12T09:16:35.116Z,1008.2
2017-04-12T09:17:36.401Z,1007.87
2017-04-12T09:18:37.639Z,1007.94
2017-04-12T09:19:38.995Z,1007.96
2017-04-12T09:20:40.241Z,1008.16
2017-04-12T09:21:41.505Z,1008.15
2017-04-12T09:22:42.739Z,1008.06
2017-04-12T09:23:44.047Z,1008
2017-04-12T09:24:45.348Z,1007.84
2017-04-12T09:25:46.609Z,1007.93
2017-04-12T09:26:47.829Z,1007.79
2017-04-12T09:27:49.076Z,1008.08
2017-04-12T09:28:50.331Z,1008
2017-04-12T09:29:51.597Z,1008.01
2017-04-12T09:30:52.845Z,1008.05
2017-04-12T09:31:54.086Z,1008.18
2017-04-12T09:32:55.342Z,1008.32
2017-04-12T09:33:56.583Z,1008.15
2017-04-12T09:34:57.957Z,1007.96
2017-04-12T09:35:59.229Z,1007.88
2017-04-12T09:37:00.469Z,1007.98
2017-04-12T09:38:01.716Z,1007.95
2017-04-12T09:39:02.957Z,1007.85
2017-04-12T09:40:04.221Z,1007.78
2017-04-12T09:41:05.454Z,1007.91
2017-04-12T09:42:06.699Z,1007.92
2017-04-12T09:43:08.068Z,1007.96
2017-04-12T09:44:09.316Z,1007.96
2017-04-12T09:45:10.596Z,1008.11
2017-04-12T09:46:11.868Z,1008.08
2017-04-12T09:47:13.106Z,1007.88
2017-04-12T09:48:14.377Z,1008.08
2017-04-12T09:49:15.608Z,1007.9
2017-04-12T09:50:16.875Z,1007.98
2017-04-12T09:51:18.126Z,1007.99
2017-04-12T09:52:19.374Z,1007.89
2017-04-12T09:53:20.622Z,1007.9
2017-04-12T09:54:21.921Z,1007.82
2017-04-12T09:55:23.122Z,1007.79
2017-04-12T09:56:24.420Z,1007.95
2017-04-12T09:57:25.724Z,1008
2017-04-12T09:58:26.971Z,1007.94
2017-04-12T09:59:28.210Z,1007.85
2017-04-12T10:00:29.529Z,1007.9
2017-04-12T10:01:30.726Z,1007.81
2017-04-12T10:02:32.003Z,1007.61
2017-04-12T10:03:33.246Z,1007.63
2017-04-12T10:04:34.533Z,1007.52
2017-04-12T10:05:35.790Z,1007.5
2017-04-12T10:06:37.038Z,1007.53
2017-04-12T10:07:38.291Z,1007.51
2017-04-12T10:08:39.540Z,1007.53
2017-04-12T10:09:40.877Z,1007.61
2017-04-12T10:10:42.102Z,1007.5
2017-04-12T10:11:43.334Z,1007.59
2017-04-12T10:12:44.593Z,1007.52
2017-04-12T10:13:45.833Z,1007.53
2017-04-12T10:14:47.096Z,1007.56
2017-04-12T10:15:48.405Z,1007.59
2017-04-12T10:16:49.623Z,1007.54
2017-04-12T10:17:50.891Z,1007.5
2017-04-12T10:18:52.209Z,1007.47
2017-04-12T10:19:53.517Z,1007.48
2017-04-12T10:20:54.763Z,1007.51
2017-04-12T10:21:56.014Z,1007.48
2017-04-12T10:22:57.355Z,1007.51
2017-04-12T10:23:58.593Z,1007.42
2017-04-12T10:24:59.871Z,1007.49
2017-04-12T10:26:01.116Z,1007.55
2017-04-12T10:27:02.343Z,1007.48
2017-04-12T10:28:03.825Z,1007.46
2017-04-12T10:29:05.041Z,1007.4
2017-04-12T10:30:06.282Z,1007.38
2017-04-12T10:31:07.573Z,1007.37
2017-04-12T10:32:08.828Z,1007.42
2017-04-12T10:33:10.099Z,1007.64
2017-04-12T10:34:11.479Z,1007.58
2017-04-12T10:35:12.706Z,1007.47
2017-04-12T10:36:13.937Z,1007.52
2017-04-12T10:37:15.206Z,1007.56
2017-04-12T10:38:16.474Z,1007.38
2017-04-12T10:39:17.746Z,1007.39
2017-04-12T10:40:19.004Z,1007.43
2017-04-12T10:41:20.251Z,1007.45
2017-04-12T10:42:21.495Z,1007.44
2017-04-12T10:43:22.744Z,1007.49
2017-04-12T10:44:23.991Z,1007.29
2017-04-12T10:45:25.392Z,1007.29
2017-04-12T10:46:26.654Z,1007.34
2017-04-12T10:47:27.888Z,1007.17
2017-04-12T10:48:29.169Z,1007.23
2017-04-12T10:49:30.526Z,1007.13
2017-04-12T10:50:31.755Z,1007.23
2017-04-12T10:51:33.002Z,1007.21
2017-04-12T10:52:34.241Z,1007.18
2017-04-12T10:53:35.494Z,1007.2
2017-04-12T10:54:36.750Z,1007.18
2017-04-12T10:55:38.113Z,1007.22
2017-04-12T10:56:39.530Z,1007.26
2017-04-12T10:57:40.772Z,1007.31
2017-04-12T10:58:42.048Z,1007.25
2017-04-12T10:59:43.266Z,1007.27
2017-04-12T11:00:44.503Z,1007.28
2017-04-12T11:01:45.826Z,1007.31
2017-04-12T11:02:47.078Z,1007.27
2017-04-12T11:03:48.334Z,1007.28
2017-04-12T11:04:49.572Z,1007.28
2017-04-12T11:05:50.819Z,1007.19
2017-04-12T11:06:52.100Z,1007.17
2017-04-12T11:07:53.349Z,1007.08
2017-04-12T11:08:54.578Z,1007.18
2017-04-12T11:09:55.971Z,1007.08
2017-04-12T11:10:57.230Z,1007.13
2017-04-12T11:11:58.474Z,1007.16
2017-04-12T11:12:59.720Z,1007.1
2017-04-12T11:14:00.968Z,1007.03
2017-04-12T11:15:02.220Z,1007.02
2017-04-12T11:16:03.476Z,1007.03
2017-04-12T11:17:04.726Z,1007.05
2017-04-12T11:18:06.304Z,1007.06
2017-04-12T11:19:07.535Z,1007.05
2017-04-12T11:20:08.692Z,1007.12
2017-04-12T11:21:09.945Z,1007.06
2017-04-12T11:22:11.227Z,1007.03
2017-04-12T11:23:12.474Z,1007.09
2017-04-12T11:24:13.719Z,1007.08
2017-04-12T11:25:14.965Z,1007.07
2017-04-12T11:26:16.216Z,1007.15
2017-04-12T11:27:17.694Z,1007.05
2017-04-12T11:28:19.117Z,1007.05
2017-04-12T11:29:20.362Z,1006.99
2017-04-12T11:30:21.631Z,1007
2017-04-12T11:31:22.910Z,1007.03
2017-04-12T11:32:24.157Z,1007.03
2017-04-12T11:33:25.509Z,1006.96
2017-04-12T11:34:26.875Z,1006.95
2017-04-12T11:35:28.119Z,1006.94
2017-04-12T11:36:29.385Z,1006.85
2017-04-12T11:37:30.635Z,1006.89
2017-04-12T11:38:31.884Z,1006.8
2017-04-12T11:39:33.185Z,1006.84
2017-04-12T11:40:34.407Z,1006.83
2017-04-12T11:41:35.673Z,1006.83
2017-04-12T11:42:36.912Z,1006.82
2017-04-12T11:43:38.155Z,1006.83
2017-04-12T11:44:39.373Z,1006.87
2017-04-12T11:45:40.623Z,1006.8
2017-04-12T11:46:41.895Z,1006.82
2017-04-12T11:47:43.136Z,1006.79
2017-04-12T11:48:44.359Z,1006.83
2017-04-12T11:49:45.601Z,1006.77
2017-04-12T11:50:46.826Z,1006.76
2017-04-12T11:51:48.152Z,1006.72
2017-04-12T11:52:49.382Z,1006.79
2017-04-12T11:53:50.622Z,1006.74
2017-04-12T11:54:51.874Z,1006.7
2017-04-12T11:55:53.111Z,1006.71
2017-04-12T11:56:54.362Z,1006.65
2017-04-12T11:57:55.794Z,1006.66
2017-04-12T11:58:57.086Z,1006.6
2017-04-12T11:59:58.357Z,1006.66
2017-04-12T12:00:59.585Z,1006.71
2017-04-12T12:02:00.833Z,1006.62
2017-04-12T12:03:02.076Z,1006.72
2017-04-12T12:04:03.313Z,1006.75
2017-04-12T12:05:04.574Z,1006.73
2017-04-12T12:06:05.932Z,1006.71
2017-04-12T12:07:07.277Z,1006.75
2017-04-12T12:08:08.514Z,1006.74
2017-04-12T12:09:09.817Z,1006.69
2017-04-12T12:10:11.149Z,1006.73
2017-04-12T12:11:12.383Z,1006.65
2017-04-12T12:12:13.637Z,1006.71
2017-04-12T12:13:14.903Z,1006.74
2017-04-12T12:14:16.155Z,1006.71
2017-04-12T12:15:17.429Z,1006.73
2017-04-12T12:16:18.678Z,1006.76
2017-04-12T12:17:19.975Z,1006.73
2017-04-12T12:18:21.206Z,1006.81
2017-04-12T12:19:22.468Z,1006.83
2017-04-12T12:20:23.735Z,1006.83
2017-04-12T12:21:24.972Z,1006.84
2017-04-12T12:22:26.231Z,1006.8
2017-04-12T12:23:27.599Z,1006.76